Terminal Aerodrome Forecast
Issued by NWS

Home | Current Version | Previous Version | Text Only | Print | Product List | Glossary On
Versions: 1 2 3 4 5 6 7 8 9 10 11 12 13 14 15 16
000
FTUS41 KPBZ 081120
TAFDUJ
TAF
KDUJ 081120Z 0812/0912 13005KT P6SM SCT150
     FM082000 14005KT 6SM -RASN OVC035
     FM082200 16005KT 2SM -SN OVC010
     FM090300 22004KT 5SM -SHSN OVC004=

USA.gov is the U.S. government's official web portal to all federal, state and local government web resources and services.